createdAt,value
2022-09-27T00:01:13.973Z,65.54
2022-09-27T00:04:00.598Z,65.71
2022-09-27T00:06:46.050Z,65.57
2022-09-27T00:09:31.592Z,65.73
2022-09-27T00:12:16.950Z,65.58
2022-09-27T00:15:02.293Z,65.57
2022-09-27T00:17:51.964Z,65.35
2022-09-27T00:20:37.336Z,65.55
2022-09-27T00:23:22.729Z,65.45
2022-09-27T00:26:10.757Z,65.33
2022-09-27T00:28:56.448Z,65.47
2022-09-27T00:31:41.752Z,65.66
2022-09-27T00:34:27.095Z,65.68
2022-09-27T00:37:12.576Z,65.65
2022-09-27T00:39:57.897Z,65.79
2022-09-27T00:42:43.087Z,65.47
2022-09-27T00:45:28.583Z,65.61
2022-09-27T00:48:17.664Z,65.68
2022-09-27T00:51:05.560Z,65.73
2022-09-27T00:53:55.597Z,65.73
2022-09-27T00:56:43.572Z,65.62
2022-09-27T00:59:34.098Z,65.59
2022-09-27T01:02:19.839Z,65.82
2022-09-27T01:05:08.707Z,65.80
2022-09-27T01:07:56.785Z,65.71
2022-09-27T01:10:54.689Z,65.90
2022-09-27T01:14:10.345Z,65.79
2022-09-27T01:17:07.897Z,65.87
2022-09-27T01:20:21.473Z,65.93
2022-09-27T01:23:34.316Z,65.93
2022-09-27T01:26:41.656Z,65.89
2022-09-27T01:30:15.081Z,65.95
2022-09-27T01:33:10.485Z,65.91
2022-09-27T01:36:02.731Z,65.78
2022-09-27T01:38:57.108Z,66.09
2022-09-27T01:41:51.310Z,66.04
2022-09-27T01:44:52.620Z,66.21
2022-09-27T01:47:48.774Z,66.11
2022-09-27T01:51:05.033Z,66.44
2022-09-27T01:53:54.655Z,66.18
2022-09-27T01:57:11.751Z,66.13
2022-09-27T02:00:02.833Z,66.23
2022-09-27T02:03:20.772Z,66.31
2022-09-27T02:06:34.929Z,66.18
2022-09-27T02:09:58.395Z,66.29
2022-09-27T02:13:03.927Z,66.29
2022-09-27T02:16:08.485Z,66.26
2022-09-27T02:19:26.047Z,66.31
2022-09-27T02:22:36.535Z,66.29
2022-09-27T02:25:31.299Z,66.31
2022-09-27T02:28:43.620Z,66.43
2022-09-27T02:31:32.495Z,66.37
2022-09-27T02:34:24.118Z,66.19
2022-09-27T02:37:10.071Z,66.37
2022-09-27T02:39:55.897Z,66.32
2022-09-27T02:42:44.009Z,66.17
2022-09-27T02:45:37.843Z,66.46
2022-09-27T02:48:26.436Z,66.31
2022-09-27T02:51:36.413Z,66.35
2022-09-27T02:54:59.391Z,66.27
2022-09-27T02:58:13.746Z,66.01
2022-09-27T03:02:14.337Z,66.27
2022-09-27T03:05:28.156Z,66.63
2022-09-27T03:08:14.733Z,66.52
2022-09-27T03:11:00.519Z,66.42
2022-09-27T03:14:07.268Z,65.53
2022-09-27T03:16:54.672Z,65.85
2022-09-27T03:19:58.802Z,65.30
2022-09-27T03:23:04.008Z,65.17
2022-09-27T03:25:49.863Z,63.97
2022-09-27T03:28:36.427Z,63.92
2022-09-27T03:31:22.226Z,64.76
2022-09-27T03:34:33.882Z,64.85
2022-09-27T03:37:19.285Z,64.94
2022-09-27T03:40:05.559Z,65.09
2022-09-27T03:42:51.247Z,64.91
2022-09-27T03:45:37.461Z,64.69
2022-09-27T03:48:28.298Z,65.10
2022-09-27T03:51:13.869Z,65.40
2022-09-27T03:53:59.355Z,65.36
2022-09-27T03:56:45.064Z,65.84
2022-09-27T03:59:31.415Z,66.05
2022-09-27T04:02:35.505Z,67.35
2022-09-27T04:05:43.966Z,66.70
2022-09-27T04:08:34.458Z,66.66
2022-09-27T04:11:20.263Z,66.57
2022-09-27T04:14:06.134Z,66.87
2022-09-27T04:16:59.213Z,66.90
2022-09-27T04:20:07.788Z,68.11
2022-09-27T04:22:55.124Z,67.07
2022-09-27T04:25:40.564Z,67.20
2022-09-27T04:28:54.413Z,66.82
2022-09-27T04:31:40.722Z,66.71
2022-09-27T04:34:57.077Z,66.55
2022-09-27T04:37:46.665Z,66.62
2022-09-27T04:40:35.554Z,66.69
2022-09-27T04:43:21.454Z,66.72
2022-09-27T04:46:07.114Z,66.75
2022-09-27T04:48:52.511Z,66.42
2022-09-27T04:51:38.412Z,66.52
2022-09-27T04:54:24.136Z,64.53
2022-09-27T04:57:18.708Z,65.52
2022-09-27T05:00:05.122Z,65.51
2022-09-27T05:02:50.950Z,65.50
2022-09-27T05:05:55.674Z,65.34
2022-09-27T05:08:40.917Z,65.32
2022-09-27T05:11:46.495Z,65.21
2022-09-27T05:14:35.012Z,65.39
2022-09-27T05:17:26.618Z,65.61
2022-09-27T05:20:30.816Z,65.85
2022-09-27T05:23:44.782Z,65.91
2022-09-27T05:26:33.226Z,65.94
2022-09-27T05:29:18.779Z,66.07
2022-09-27T05:32:14.375Z,66.09
2022-09-27T05:35:00.515Z,65.87
2022-09-27T05:37:56.739Z,66.02
2022-09-27T05:40:44.636Z,66.14
2022-09-27T05:43:31.748Z,65.97
2022-09-27T05:46:19.793Z,65.76
2022-09-27T05:49:06.938Z,65.62
2022-09-27T05:51:53.096Z,65.64
2022-09-27T05:54:38.382Z,65.43
2022-09-27T05:57:23.727Z,65.13
2022-09-27T06:00:10.581Z,65.38
2022-09-27T06:03:02.621Z,65.63
2022-09-27T06:06:14.933Z,65.29
2022-09-27T06:09:11.013Z,64.92
2022-09-27T06:11:57.332Z,65.01
2022-09-27T06:14:44.031Z,64.75
2022-09-27T06:17:35.331Z,64.79
2022-09-27T06:20:27.101Z,64.88
2022-09-27T06:23:16.072Z,64.95
2022-09-27T06:26:08.062Z,64.81
2022-09-27T06:29:09.464Z,64.88
2022-09-27T06:31:59.399Z,64.58
2022-09-27T06:34:54.932Z,64.22
2022-09-27T06:37:41.200Z,64.36
2022-09-27T06:40:27.435Z,64.19
2022-09-27T06:43:34.360Z,64.47
2022-09-27T06:46:23.111Z,64.24
2022-09-27T06:49:27.696Z,64.43
2022-09-27T06:52:15.397Z,64.33
2022-09-27T06:55:01.847Z,64.25
2022-09-27T06:58:12.457Z,64.38
2022-09-27T07:01:03.558Z,64.29
2022-09-27T07:04:12.486Z,64.68
2022-09-27T07:07:10.960Z,64.52
2022-09-27T07:09:59.492Z,64.58
2022-09-27T07:12:48.810Z,64.29
2022-09-27T07:15:37.295Z,64.60
2022-09-27T07:18:28.274Z,64.53
2022-09-27T07:21:13.580Z,65.15
2022-09-27T07:23:59.246Z,64.71
2022-09-27T07:26:45.271Z,64.51
2022-09-27T07:29:32.063Z,64.80
2022-09-27T07:32:18.345Z,64.76
2022-09-27T07:35:08.084Z,64.40
2022-09-27T07:37:55.371Z,64.20
2022-09-27T07:40:41.552Z,64.36
2022-09-27T07:43:27.399Z,64.22
2022-09-27T07:46:13.809Z,64.11
2022-09-27T07:49:08.133Z,63.82
2022-09-27T07:52:20.466Z,64.24
2022-09-27T07:55:32.147Z,64.03
2022-09-27T07:58:25.702Z,63.70
2022-09-27T08:01:19.437Z,63.87
2022-09-27T08:04:05.952Z,64.08
2022-09-27T08:06:51.860Z,63.98
2022-09-27T08:09:37.583Z,64.23
2022-09-27T08:12:22.946Z,64.20
2022-09-27T08:15:08.711Z,64.03
2022-09-27T08:17:55.412Z,63.87
2022-09-27T08:21:00.747Z,63.97
2022-09-27T08:24:08.863Z,64.33
2022-09-27T08:27:13.446Z,64.05
2022-09-27T08:30:13.202Z,63.52
2022-09-27T08:33:01.123Z,63.37
2022-09-27T08:35:46.797Z,63.35
2022-09-27T08:38:32.106Z,64.17
2022-09-27T08:41:44.955Z,63.91
2022-09-27T08:44:36.769Z,63.80
2022-09-27T08:47:35.752Z,64.27
2022-09-27T08:50:40.042Z,63.96
2022-09-27T08:53:33.750Z,64.59
2022-09-27T08:56:22.782Z,64.18
2022-09-27T08:59:21.889Z,64.12
2022-09-27T09:02:27.322Z,64.45
2022-09-27T09:05:23.341Z,64.36
2022-09-27T09:08:18.919Z,64.41
2022-09-27T09:11:41.175Z,64.54
2022-09-27T09:14:45.193Z,64.68
2022-09-27T09:17:55.201Z,64.54
2022-09-27T09:21:10.696Z,64.49
2022-09-27T09:24:15.485Z,64.42
2022-09-27T09:27:23.692Z,64.36
2022-09-27T09:30:31.365Z,64.08
2022-09-27T09:33:30.106Z,63.92
2022-09-27T09:36:58.583Z,63.83
2022-09-27T09:39:54.349Z,63.72
2022-09-27T09:42:50.322Z,63.71
2022-09-27T09:45:43.092Z,63.73
2022-09-27T09:48:42.500Z,63.54
2022-09-27T09:51:38.394Z,63.53
2022-09-27T09:54:29.251Z,63.58
2022-09-27T09:57:28.797Z,63.54
2022-09-27T10:00:19.089Z,63.90
2022-09-27T10:03:08.595Z,63.70
2022-09-27T10:05:54.097Z,63.73
2022-09-27T10:08:40.525Z,63.81
2022-09-27T10:11:42.394Z,63.64
2022-09-27T10:14:33.775Z,63.74
2022-09-27T10:17:28.529Z,63.87
2022-09-27T10:20:31.681Z,63.12
2022-09-27T10:23:25.126Z,62.91
2022-09-27T10:26:33.996Z,62.46
2022-09-27T10:29:34.869Z,61.81
2022-09-27T10:32:33.702Z,62.82
2022-09-27T10:35:42.344Z,62.71
2022-09-27T10:38:37.348Z,62.76
2022-09-27T10:41:43.132Z,62.35
2022-09-27T10:44:39.010Z,62.47
2022-09-27T10:47:36.498Z,62.50
2022-09-27T10:50:59.690Z,62.78
2022-09-27T10:54:01.535Z,62.92
2022-09-27T10:57:21.512Z,63.01
2022-09-27T11:00:22.711Z,63.12
2022-09-27T11:03:16.622Z,63.14
2022-09-27T11:06:20.355Z,62.83
2022-09-27T11:09:24.405Z,62.81
2022-09-27T11:12:15.929Z,62.82
2022-09-27T11:15:07.624Z,62.84
2022-09-27T11:18:08.089Z,62.83
2022-09-27T11:21:35.139Z,62.93
2022-09-27T11:24:58.656Z,62.59
2022-09-27T11:27:55.734Z,62.70
2022-09-27T11:30:51.247Z,62.94
2022-09-27T11:34:49.150Z,62.90
2022-09-27T11:37:58.848Z,62.60
2022-09-27T11:41:00.648Z,62.60
2022-09-27T11:44:11.375Z,62.62
2022-09-27T11:47:25.210Z,62.75
2022-09-27T11:50:53.600Z,62.63
2022-09-27T11:53:57.477Z,62.52
2022-09-27T11:56:53.486Z,62.77
2022-09-27T12:00:00.287Z,62.23
2022-09-27T12:02:52.202Z,62.28
2022-09-27T12:05:57.694Z,62.38
2022-09-27T12:09:06.390Z,62.06
2022-09-27T12:12:01.395Z,61.95
2022-09-27T12:14:52.366Z,61.93
2022-09-27T12:17:43.087Z,61.88
2022-09-27T12:20:35.512Z,61.68
2022-09-27T12:23:36.377Z,61.15
2022-09-27T12:27:00.290Z,61.39
2022-09-27T12:29:47.352Z,61.73
2022-09-27T12:32:49.687Z,61.21
2022-09-27T12:35:47.599Z,60.93
2022-09-27T12:38:58.856Z,60.99
2022-09-27T12:41:50.427Z,61.02
2022-09-27T12:44:50.932Z,60.93
2022-09-27T12:47:41.338Z,60.97
2022-09-27T12:50:44.611Z,60.96
2022-09-27T12:53:45.101Z,60.93
2022-09-27T12:56:30.905Z,61.14
2022-09-27T12:59:55.460Z,61.37
2022-09-27T13:03:13.969Z,61.46
2022-09-27T13:05:55.597Z,61.21
2022-09-27T13:08:59.911Z,61.29
2022-09-27T13:12:11.690Z,61.43
2022-09-27T13:15:31.503Z,61.32
2022-09-27T13:18:30.237Z,61.50
2022-09-27T13:21:51.248Z,61.72
2022-09-27T13:24:47.281Z,62.09
2022-09-27T13:27:52.272Z,61.74
2022-09-27T13:30:45.195Z,62.01
2022-09-27T13:33:49.737Z,61.84
2022-09-27T13:36:44.770Z,61.81
2022-09-27T13:39:31.152Z,61.86
2022-09-27T13:43:17.730Z,61.81
2022-09-27T13:46:20.660Z,61.88
2022-09-27T13:49:26.296Z,62.04
2022-09-27T13:52:34.123Z,61.96
2022-09-27T13:55:40.388Z,62.21
2022-09-27T13:58:53.507Z,62.51
2022-09-27T14:02:09.713Z,62.91
2022-09-27T14:04:58.269Z,63.14
2022-09-27T14:07:44.947Z,63.43
2022-09-27T14:10:35.296Z,62.34
2022-09-27T14:13:24.517Z,62.20
2022-09-27T14:16:26.436Z,63.08
2022-09-27T14:19:17.949Z,62.97
2022-09-27T14:22:07.241Z,61.06
2022-09-27T14:24:58.260Z,62.46
2022-09-27T14:27:54.639Z,61.95
2022-09-27T14:31:17.993Z,62.25
2022-09-27T14:34:29.648Z,62.81
2022-09-27T14:37:26.273Z,63.21
2022-09-27T14:40:21.719Z,62.39
2022-09-27T14:43:11.976Z,62.69
2022-09-27T14:49:55.740Z,62.85
2022-09-27T14:52:41.153Z,62.83
2022-09-27T14:55:29.292Z,63.03
2022-09-27T14:58:29.751Z,63.15
2022-09-27T15:01:20.818Z,63.30
2022-09-27T15:04:12.816Z,63.32
2022-09-27T15:07:01.615Z,63.47
2022-09-27T15:09:47.366Z,63.49
2022-09-27T15:12:33.794Z,63.32
2022-09-27T15:15:25.995Z,63.36
2022-09-27T15:18:40.956Z,63.41
2022-09-27T15:21:35.612Z,63.57
2022-09-27T15:24:44.158Z,63.58
2022-09-27T15:27:29.503Z,63.62
2022-09-27T15:30:19.590Z,63.64
2022-09-27T15:33:06.721Z,63.78
2022-09-27T15:35:55.144Z,63.67
2022-09-27T15:38:47.445Z,63.76
2022-09-27T15:42:10.739Z,63.69
2022-09-27T15:44:57.941Z,63.79
2022-09-27T15:47:48.813Z,63.81
2022-09-27T15:50:35.077Z,63.67
2022-09-27T15:53:35.844Z,63.66
2022-09-27T15:56:21.220Z,63.64
2022-09-27T15:59:12.077Z,63.48
2022-09-27T16:02:01.971Z,63.64
2022-09-27T16:04:50.683Z,63.78
2022-09-27T16:07:36.087Z,63.60
2022-09-27T16:10:25.103Z,63.64
2022-09-27T16:13:10.594Z,63.56
2022-09-27T16:15:56.065Z,63.58
2022-09-27T16:18:41.667Z,63.61
2022-09-27T16:21:27.120Z,63.88
2022-09-27T16:24:12.506Z,63.85
2022-09-27T16:26:59.358Z,64.38
2022-09-27T16:29:45.083Z,64.78
2022-09-27T16:32:30.605Z,64.83
2022-09-27T16:35:18.336Z,64.90
2022-09-27T16:38:04.117Z,64.89
2022-09-27T16:40:49.838Z,65.04
2022-09-27T16:43:35.111Z,64.99
2022-09-27T16:46:20.493Z,65.32
2022-09-27T16:49:25.721Z,65.13
2022-09-27T16:52:11.100Z,64.80
2022-09-27T16:54:56.498Z,64.57
2022-09-27T16:57:41.790Z,64.87
2022-09-27T17:00:27.868Z,65.20
2022-09-27T17:03:13.720Z,65.06
2022-09-27T17:06:04.112Z,64.97
2022-09-27T17:08:49.740Z,64.81
2022-09-27T17:11:35.723Z,64.61
2022-09-27T17:14:21.146Z,64.14
2022-09-27T17:17:07.487Z,65.20
2022-09-27T17:19:52.825Z,65.96
2022-09-27T17:22:38.225Z,65.65
2022-09-27T17:25:23.613Z,66.07
2022-09-27T17:28:08.801Z,66.07
2022-09-27T17:30:56.430Z,65.60
2022-09-27T17:33:45.330Z,65.40
2022-09-27T17:36:34.561Z,65.03
2022-09-27T17:39:22.352Z,64.75
2022-09-27T17:42:07.927Z,64.52
2022-09-27T17:44:54.549Z,64.36
2022-09-27T17:47:58.499Z,64.40
2022-09-27T17:50:46.155Z,64.28
2022-09-27T17:53:36.000Z,64.39
2022-09-27T17:56:22.940Z,64.14
2022-09-27T17:59:09.716Z,64.08
2022-09-27T18:01:55.497Z,63.96
2022-09-27T18:04:41.118Z,64.02
2022-09-27T18:07:26.595Z,63.84
2022-09-27T18:10:12.150Z,63.85
2022-09-27T18:12:57.526Z,63.84
2022-09-27T18:15:43.411Z,63.61
2022-09-27T18:18:28.692Z,63.34
2022-09-27T18:21:22.028Z,63.25
2022-09-27T18:24:08.481Z,63.54
2022-09-27T18:26:55.996Z,63.06
2022-09-27T18:29:42.249Z,63.20
2022-09-27T18:32:27.675Z,63.17
2022-09-27T18:35:13.269Z,63.01
2022-09-27T18:37:59.051Z,62.84
2022-09-27T18:40:56.302Z,63.14
2022-09-27T18:43:44.678Z,63.11
2022-09-27T18:46:36.451Z,62.81
2022-09-27T18:49:26.935Z,63.11
2022-09-27T18:52:13.499Z,62.67
2022-09-27T18:54:59.503Z,62.71
2022-09-27T18:57:45.191Z,62.78
2022-09-27T19:00:31.395Z,62.43
2022-09-27T19:03:16.685Z,62.80
2022-09-27T19:06:09.836Z,62.92
2022-09-27T19:08:58.586Z,62.35
2022-09-27T19:11:44.606Z,62.27
2022-09-27T19:14:29.863Z,62.38
2022-09-27T19:17:15.116Z,62.65
2022-09-27T19:20:00.454Z,62.25
2022-09-27T19:22:45.845Z,62.13
2022-09-27T19:25:31.474Z,62.17
2022-09-27T19:28:17.093Z,61.90
2022-09-27T19:31:16.483Z,62.12
2022-09-27T19:34:02.345Z,61.75
2022-09-27T19:36:47.564Z,61.92
2022-09-27T19:39:32.751Z,61.89
2022-09-27T19:42:17.936Z,62.14
2022-09-27T19:45:06.800Z,61.71
2022-09-27T19:47:56.203Z,61.64
2022-09-27T19:50:41.886Z,61.76
2022-09-27T19:53:32.088Z,61.59
2022-09-27T19:56:18.426Z,61.55
2022-09-27T19:59:07.102Z,61.49
2022-09-27T20:01:52.655Z,61.38
2022-09-27T20:04:38.169Z,61.45
2022-09-27T20:07:23.860Z,61.54
2022-09-27T20:10:09.741Z,61.30
2022-09-27T20:12:54.965Z,61.05
2022-09-27T20:15:40.398Z,61.53
2022-09-27T20:18:25.557Z,61.14
2022-09-27T20:21:11.573Z,61.10
2022-09-27T20:23:57.760Z,60.96
2022-09-27T20:26:44.639Z,60.93
2022-09-27T20:29:31.243Z,60.92
2022-09-27T20:32:27.268Z,60.96
2022-09-27T20:35:13.803Z,60.70
2022-09-27T20:37:59.019Z,60.78
2022-09-27T20:40:52.751Z,60.45
2022-09-27T20:43:39.276Z,61.03
2022-09-27T20:46:25.013Z,60.55
2022-09-27T20:49:14.757Z,60.46
2022-09-27T20:52:00.324Z,60.28
2022-09-27T20:54:46.021Z,60.21
2022-09-27T20:57:53.447Z,60.32
2022-09-27T21:00:37.053Z,60.28
2022-09-27T21:03:22.398Z,60.03
2022-09-27T21:06:07.672Z,60.14
2022-09-27T21:08:54.545Z,60.19
2022-09-27T21:11:40.061Z,60.34
2022-09-27T21:14:25.335Z,60.20
2022-09-27T21:17:10.669Z,59.91
2022-09-27T21:19:55.967Z,60.07
2022-09-27T21:22:41.205Z,60.17
2022-09-27T21:25:26.596Z,59.55
2022-09-27T21:28:11.810Z,59.79
2022-09-27T21:30:57.357Z,59.63
2022-09-27T21:33:43.288Z,59.59
2022-09-27T21:36:37.943Z,59.56
2022-09-27T21:39:23.540Z,59.46
2022-09-27T21:42:08.968Z,59.08
2022-09-27T21:44:54.216Z,59.37
2022-09-27T21:47:39.537Z,59.73
2022-09-27T21:50:24.680Z,59.37
2022-09-27T21:53:10.005Z,59.31
2022-09-27T21:55:55.823Z,59.08
2022-09-27T21:58:41.895Z,59.27
2022-09-27T22:01:29.964Z,59.23
2022-09-27T22:04:15.604Z,59.20
2022-09-27T22:07:00.975Z,59.17
2022-09-27T22:09:46.224Z,59.23
2022-09-27T22:12:31.545Z,59.00
2022-09-27T22:15:16.944Z,58.83
2022-09-27T22:18:02.513Z,58.92
2022-09-27T22:20:48.214Z,58.86
2022-09-27T22:23:33.969Z,58.48
2022-09-27T22:26:26.711Z,58.88
2022-09-27T22:29:12.276Z,58.70
2022-09-27T22:31:57.887Z,58.36
2022-09-27T22:34:43.239Z,58.83
2022-09-27T22:37:28.559Z,58.61
2022-09-27T22:40:14.710Z,58.07
2022-09-27T22:42:59.961Z,58.18
2022-09-27T22:45:45.149Z,58.23
2022-09-27T22:48:31.737Z,58.01
2022-09-27T22:51:17.804Z,58.13
2022-09-27T22:54:03.084Z,58.41
2022-09-27T22:56:48.316Z,57.74
2022-09-27T22:59:33.633Z,58.05
2022-09-27T23:02:18.933Z,58.00
2022-09-27T23:05:04.463Z,57.73
2022-09-27T23:07:52.430Z,58.03
2022-09-27T23:10:38.927Z,57.71
2022-09-27T23:13:24.179Z,57.82
2022-09-27T23:16:12.379Z,57.88
2022-09-27T23:18:57.976Z,57.91
2022-09-27T23:21:43.291Z,57.89
2022-09-27T23:24:28.646Z,57.72
2022-09-27T23:27:32.350Z,57.86
2022-09-27T23:30:19.221Z,57.51
2022-09-27T23:33:04.595Z,58.18
2022-09-27T23:35:50.336Z,57.96
2022-09-27T23:38:37.352Z,58.15
2022-09-27T23:41:22.768Z,58.44
2022-09-27T23:44:08.157Z,58.45
2022-09-27T23:46:59.597Z,58.32
2022-09-27T23:49:44.965Z,58.34
2022-09-27T23:52:30.139Z,58.41
2022-09-27T23:55:15.831Z,58.39
2022-09-27T23:58:01.838Z,58.52
